sensor_id;sensor_type;location;lat;lon;timestamp;P1;durP1;ratioP1;P2;durP2;ratioP2
35743;SDS011;21867;52.012;4.324;2022-12-19T00:01:19;8.43;;;7.50;;
35743;SDS011;21867;52.012;4.324;2022-12-19T00:04:06;20.37;;;13.70;;
35743;SDS011;21867;52.012;4.324;2022-12-19T00:09:34;17.70;;;14.10;;
35743;SDS011;21867;52.012;4.324;2022-12-19T00:12:01;12.77;;;11.40;;
35743;SDS011;21867;52.012;4.324;2022-12-19T00:14:28;9.60;;;8.60;;
35743;SDS011;21867;52.012;4.324;2022-12-19T00:16:56;15.23;;;12.90;;
35743;SDS011;21867;52.012;4.324;2022-12-19T00:19:23;16.03;;;13.73;;
35743;SDS011;21867;52.012;4.324;2022-12-19T00:21:51;13.07;;;11.33;;
35743;SDS011;21867;52.012;4.324;2022-12-19T00:24:18;11.60;;;10.30;;
35743;SDS011;21867;52.012;4.324;2022-12-19T00:26:48;17.10;;;14.37;;
35743;SDS011;21867;52.012;4.324;2022-12-19T00:29:15;12.73;;;10.03;;
35743;SDS011;21867;52.012;4.324;2022-12-19T00:31:43;16.63;;;12.97;;
35743;SDS011;21867;52.012;4.324;2022-12-19T00:34:13;9.97;;;8.43;;
35743;SDS011;21867;52.012;4.324;2022-12-19T00:36:40;9.83;;;8.13;;
35743;SDS011;21867;52.012;4.324;2022-12-19T00:39:10;14.00;;;11.57;;
35743;SDS011;21867;52.012;4.324;2022-12-19T00:41:38;11.30;;;9.93;;
35743;SDS011;21867;52.012;4.324;2022-12-19T00:44:10;15.93;;;12.87;;
35743;SDS011;21867;52.012;4.324;2022-12-19T00:46:40;13.13;;;9.87;;
35743;SDS011;21867;52.012;4.324;2022-12-19T00:49:12;11.73;;;10.20;;
35743;SDS011;21867;52.012;4.324;2022-12-19T00:51:39;10.43;;;8.83;;
35743;SDS011;21867;52.012;4.324;2022-12-19T00:54:12;15.00;;;11.23;;
35743;SDS011;21867;52.012;4.324;2022-12-19T00:56:40;9.37;;;7.67;;
35743;SDS011;21867;52.012;4.324;2022-12-19T00:59:07;14.37;;;12.57;;
35743;SDS011;21867;52.012;4.324;2022-12-19T01:01:37;12.33;;;10.37;;
35743;SDS011;21867;52.012;4.324;2022-12-19T01:04:06;16.03;;;13.60;;
35743;SDS011;21867;52.012;4.324;2022-12-19T01:06:53;11.30;;;10.13;;
35743;SDS011;21867;52.012;4.324;2022-12-19T01:09:36;13.07;;;10.73;;
35743;SDS011;21867;52.012;4.324;2022-12-19T01:12:04;14.30;;;11.77;;
35743;SDS011;21867;52.012;4.324;2022-12-19T01:14:31;12.80;;;11.37;;
35743;SDS011;21867;52.012;4.324;2022-12-19T01:17:00;21.00;;;14.00;;
35743;SDS011;21867;52.012;4.324;2022-12-19T01:25:08;10.47;;;9.37;;
35743;SDS011;21867;52.012;4.324;2022-12-19T01:27:37;10.77;;;8.93;;
35743;SDS011;21867;52.012;4.324;2022-12-19T01:30:05;12.03;;;10.67;;
35743;SDS011;21867;52.012;4.324;2022-12-19T01:32:34;14.83;;;13.40;;
35743;SDS011;21867;52.012;4.324;2022-12-19T01:35:02;13.93;;;11.97;;
35743;SDS011;21867;52.012;4.324;2022-12-19T01:37:29;15.30;;;13.57;;
35743;SDS011;21867;52.012;4.324;2022-12-19T01:40:02;14.80;;;12.43;;
35743;SDS011;21867;52.012;4.324;2022-12-19T01:42:33;13.77;;;12.30;;
35743;SDS011;21867;52.012;4.324;2022-12-19T01:45:02;16.67;;;12.97;;
35743;SDS011;21867;52.012;4.324;2022-12-19T01:47:30;16.30;;;14.57;;
35743;SDS011;21867;52.012;4.324;2022-12-19T01:53:48;13.97;;;12.17;;
35743;SDS011;21867;52.012;4.324;2022-12-19T01:56:16;18.33;;;14.23;;
35743;SDS011;21867;52.012;4.324;2022-12-19T01:58:45;11.67;;;10.13;;
35743;SDS011;21867;52.012;4.324;2022-12-19T02:01:13;11.07;;;8.63;;
35743;SDS011;21867;52.012;4.324;2022-12-19T02:03:41;16.73;;;15.00;;
35743;SDS011;21867;52.012;4.324;2022-12-19T02:06:09;16.33;;;14.43;;
35743;SDS011;21867;52.012;4.324;2022-12-19T02:08:40;16.53;;;13.50;;
35743;SDS011;21867;52.012;4.324;2022-12-19T02:11:10;13.20;;;11.83;;
35743;SDS011;21867;52.012;4.324;2022-12-19T02:13:38;14.43;;;12.60;;
35743;SDS011;21867;52.012;4.324;2022-12-19T02:16:08;14.97;;;13.37;;
35743;SDS011;21867;52.012;4.324;2022-12-19T02:18:39;13.33;;;11.37;;
35743;SDS011;21867;52.012;4.324;2022-12-19T02:21:12;13.03;;;10.80;;
35743;SDS011;21867;52.012;4.324;2022-12-19T02:27:34;11.77;;;9.57;;
35743;SDS011;21867;52.012;4.324;2022-12-19T02:30:10;12.87;;;10.03;;
35743;SDS011;21867;52.012;4.324;2022-12-19T02:32:52;9.83;;;8.83;;
35743;SDS011;21867;52.012;4.324;2022-12-19T02:35:25;13.23;;;11.23;;
35743;SDS011;21867;52.012;4.324;2022-12-19T02:37:55;11.07;;;9.57;;
35743;SDS011;21867;52.012;4.324;2022-12-19T02:40:25;15.93;;;10.83;;
35743;SDS011;21867;52.012;4.324;2022-12-19T02:45:30;9.63;;;8.63;;
35743;SDS011;21867;52.012;4.324;2022-12-19T02:48:01;8.90;;;7.67;;
35743;SDS011;21867;52.012;4.324;2022-12-19T02:50:36;10.37;;;8.77;;
35743;SDS011;21867;52.012;4.324;2022-12-19T03:01:40;7.23;;;6.47;;
35743;SDS011;21867;52.012;4.324;2022-12-19T03:04:13;9.67;;;8.73;;
35743;SDS011;21867;52.012;4.324;2022-12-19T03:06:43;9.63;;;8.73;;
35743;SDS011;21867;52.012;4.324;2022-12-19T03:09:15;7.70;;;6.90;;
35743;SDS011;21867;52.012;4.324;2022-12-19T03:14:28;8.50;;;7.70;;
35743;SDS011;21867;52.012;4.324;2022-12-19T03:16:55;9.93;;;8.97;;
35743;SDS011;21867;52.012;4.324;2022-12-19T03:19:26;8.17;;;7.07;;
35743;SDS011;21867;52.012;4.324;2022-12-19T03:21:53;8.47;;;7.10;;
35743;SDS011;21867;52.012;4.324;2022-12-19T03:24:21;6.77;;;6.17;;
35743;SDS011;21867;52.012;4.324;2022-12-19T03:26:54;9.03;;;8.20;;
35743;SDS011;21867;52.012;4.324;2022-12-19T03:29:28;9.73;;;8.80;;
35743;SDS011;21867;52.012;4.324;2022-12-19T03:31:58;7.03;;;6.43;;
35743;SDS011;21867;52.012;4.324;2022-12-19T03:34:28;10.13;;;9.13;;
35743;SDS011;21867;52.012;4.324;2022-12-19T03:37:03;7.37;;;6.57;;
35743;SDS011;21867;52.012;4.324;2022-12-19T03:39:33;10.33;;;9.37;;
35743;SDS011;21867;52.012;4.324;2022-12-19T03:42:01;9.30;;;8.40;;
35743;SDS011;21867;52.012;4.324;2022-12-19T03:44:30;8.20;;;7.40;;
35743;SDS011;21867;52.012;4.324;2022-12-19T03:46:59;10.07;;;8.63;;
35743;SDS011;21867;52.012;4.324;2022-12-19T03:49:30;9.43;;;8.53;;
35743;SDS011;21867;52.012;4.324;2022-12-19T03:51:59;9.03;;;8.13;;
35743;SDS011;21867;52.012;4.324;2022-12-19T03:54:28;8.80;;;8.00;;
35743;SDS011;21867;52.012;4.324;2022-12-19T03:57:00;8.03;;;7.23;;
35743;SDS011;21867;52.012;4.324;2022-12-19T04:02:24;11.37;;;10.30;;
35743;SDS011;21867;52.012;4.324;2022-12-19T04:04:55;8.20;;;7.47;;
35743;SDS011;21867;52.012;4.324;2022-12-19T04:07:23;8.37;;;7.70;;
35743;SDS011;21867;52.012;4.324;2022-12-19T04:09:50;8.47;;;7.67;;
35743;SDS011;21867;52.012;4.324;2022-12-19T04:12:19;10.47;;;9.57;;
35743;SDS011;21867;52.012;4.324;2022-12-19T04:14:47;12.07;;;10.97;;
35743;SDS011;21867;52.012;4.324;2022-12-19T04:17:26;8.53;;;7.83;;
35743;SDS011;21867;52.012;4.324;2022-12-19T04:19:58;10.70;;;9.70;;
35743;SDS011;21867;52.012;4.324;2022-12-19T04:22:28;13.37;;;11.97;;
35743;SDS011;21867;52.012;4.324;2022-12-19T04:24:57;12.20;;;10.20;;
35743;SDS011;21867;52.012;4.324;2022-12-19T04:27:40;11.57;;;10.47;;
35743;SDS011;21867;52.012;4.324;2022-12-19T04:31:10;8.50;;;7.63;;
35743;SDS011;21867;52.012;4.324;2022-12-19T04:33:39;12.80;;;11.47;;
35743;SDS011;21867;52.012;4.324;2022-12-19T04:36:09;14.27;;;12.83;;
35743;SDS011;21867;52.012;4.324;2022-12-19T04:38:36;10.40;;;9.37;;
35743;SDS011;21867;52.012;4.324;2022-12-19T04:41:04;12.00;;;10.90;;
35743;SDS011;21867;52.012;4.324;2022-12-19T04:43:31;10.47;;;9.47;;
35743;SDS011;21867;52.012;4.324;2022-12-19T04:46:04;12.53;;;11.23;;
35743;SDS011;21867;52.012;4.324;2022-12-19T04:48:33;14.13;;;12.73;;
35743;SDS011;21867;52.012;4.324;2022-12-19T04:51:01;13.53;;;11.20;;
35743;SDS011;21867;52.012;4.324;2022-12-19T04:53:30;17.50;;;15.90;;
35743;SDS011;21867;52.012;4.324;2022-12-19T04:56:06;15.30;;;13.40;;
35743;SDS011;21867;52.012;4.324;2022-12-19T04:58:39;15.03;;;13.53;;
35743;SDS011;21867;52.012;4.324;2022-12-19T05:01:19;16.13;;;14.27;;
35743;SDS011;21867;52.012;4.324;2022-12-19T05:03:46;14.90;;;13.40;;
35743;SDS011;21867;52.012;4.324;2022-12-19T05:06:20;19.63;;;14.90;;
35743;SDS011;21867;52.012;4.324;2022-12-19T05:08:49;16.80;;;15.00;;
35743;SDS011;21867;52.012;4.324;2022-12-19T05:11:16;13.57;;;12.23;;
35743;SDS011;21867;52.012;4.324;2022-12-19T05:13:45;16.93;;;15.20;;
35743;SDS011;21867;52.012;4.324;2022-12-19T05:16:18;15.97;;;13.97;;
35743;SDS011;21867;52.012;4.324;2022-12-19T05:18:45;15.00;;;12.87;;
35743;SDS011;21867;52.012;4.324;2022-12-19T05:21:13;18.80;;;16.90;;
35743;SDS011;21867;52.012;4.324;2022-12-19T05:23:40;18.53;;;16.47;;
35743;SDS011;21867;52.012;4.324;2022-12-19T05:32:04;23.60;;;21.13;;
35743;SDS011;21867;52.012;4.324;2022-12-19T05:34:31;23.37;;;19.73;;
35743;SDS011;21867;52.012;4.324;2022-12-19T05:36:59;25.63;;;22.30;;
35743;SDS011;21867;52.012;4.324;2022-12-19T05:39:26;22.20;;;18.77;;
35743;SDS011;21867;52.012;4.324;2022-12-19T05:41:54;22.03;;;19.83;;
35743;SDS011;21867;52.012;4.324;2022-12-19T05:44:21;23.60;;;19.00;;
35743;SDS011;21867;52.012;4.324;2022-12-19T05:47:39;23.37;;;20.27;;
35743;SDS011;21867;52.012;4.324;2022-12-19T05:50:07;28.77;;;22.90;;
35743;SDS011;21867;52.012;4.324;2022-12-19T05:52:35;29.63;;;24.87;;
35743;SDS011;21867;52.012;4.324;2022-12-19T05:55:11;27.23;;;24.33;;
35743;SDS011;21867;52.012;4.324;2022-12-19T06:00:36;22.80;;;18.30;;
35743;SDS011;21867;52.012;4.324;2022-12-19T06:03:05;24.47;;;21.90;;
35743;SDS011;21867;52.012;4.324;2022-12-19T06:05:35;26.20;;;21.03;;
35743;SDS011;21867;52.012;4.324;2022-12-19T06:08:02;22.73;;;17.70;;
35743;SDS011;21867;52.012;4.324;2022-12-19T06:10:30;23.17;;;17.53;;
35743;SDS011;21867;52.012;4.324;2022-12-19T06:12:57;25.10;;;20.47;;
35743;SDS011;21867;52.012;4.324;2022-12-19T06:15:24;24.70;;;20.67;;
35743;SDS011;21867;52.012;4.324;2022-12-19T06:17:52;25.17;;;21.33;;
35743;SDS011;21867;52.012;4.324;2022-12-19T06:20:20;29.40;;;20.97;;
35743;SDS011;21867;52.012;4.324;2022-12-19T06:22:48;29.47;;;23.57;;
35743;SDS011;21867;52.012;4.324;2022-12-19T06:25:15;32.70;;;24.10;;
35743;SDS011;21867;52.012;4.324;2022-12-19T06:27:42;22.57;;;19.23;;
35743;SDS011;21867;52.012;4.324;2022-12-19T06:30:15;32.20;;;25.30;;
35743;SDS011;21867;52.012;4.324;2022-12-19T06:32:46;29.27;;;19.77;;
35743;SDS011;21867;52.012;4.324;2022-12-19T06:35:13;35.80;;;21.83;;
35743;SDS011;21867;52.012;4.324;2022-12-19T06:37:42;28.07;;;21.93;;
35743;SDS011;21867;52.012;4.324;2022-12-19T06:40:10;31.20;;;21.93;;
35743;SDS011;21867;52.012;4.324;2022-12-19T06:42:37;21.60;;;17.80;;
35743;SDS011;21867;52.012;4.324;2022-12-19T06:45:05;29.00;;;22.93;;
35743;SDS011;21867;52.012;4.324;2022-12-19T06:47:32;21.07;;;17.50;;
35743;SDS011;21867;52.012;4.324;2022-12-19T06:50:00;21.70;;;16.67;;
35743;SDS011;21867;52.012;4.324;2022-12-19T06:52:27;23.27;;;16.73;;
35743;SDS011;21867;52.012;4.324;2022-12-19T06:54:56;27.97;;;20.73;;
35743;SDS011;21867;52.012;4.324;2022-12-19T06:57:23;26.03;;;23.10;;
35743;SDS011;21867;52.012;4.324;2022-12-19T06:59:50;22.53;;;18.97;;
35743;SDS011;21867;52.012;4.324;2022-12-19T07:02:20;20.73;;;16.10;;
35743;SDS011;21867;52.012;4.324;2022-12-19T07:04:51;13.30;;;11.90;;
35743;SDS011;21867;52.012;4.324;2022-12-19T07:07:21;22.03;;;15.83;;
35743;SDS011;21867;52.012;4.324;2022-12-19T07:09:48;24.67;;;16.57;;
35743;SDS011;21867;52.012;4.324;2022-12-19T07:12:17;25.87;;;20.87;;
35743;SDS011;21867;52.012;4.324;2022-12-19T07:14:44;23.57;;;18.13;;
35743;SDS011;21867;52.012;4.324;2022-12-19T07:17:18;24.37;;;18.70;;
35743;SDS011;21867;52.012;4.324;2022-12-19T07:19:46;17.60;;;13.33;;
35743;SDS011;21867;52.012;4.324;2022-12-19T07:22:16;24.20;;;17.90;;
35743;SDS011;21867;52.012;4.324;2022-12-19T07:24:43;13.83;;;11.83;;
35743;SDS011;21867;52.012;4.324;2022-12-19T07:27:10;25.33;;;16.83;;
35743;SDS011;21867;52.012;4.324;2022-12-19T07:29:45;30.83;;;21.10;;
35743;SDS011;21867;52.012;4.324;2022-12-19T07:32:12;24.17;;;16.27;;
35743;SDS011;21867;52.012;4.324;2022-12-19T07:34:39;23.67;;;18.17;;
35743;SDS011;21867;52.012;4.324;2022-12-19T07:37:07;18.53;;;16.63;;
35743;SDS011;21867;52.012;4.324;2022-12-19T07:39:34;22.70;;;17.97;;
35743;SDS011;21867;52.012;4.324;2022-12-19T07:42:06;21.53;;;16.10;;
35743;SDS011;21867;52.012;4.324;2022-12-19T07:45:02;22.53;;;18.97;;
35743;SDS011;21867;52.012;4.324;2022-12-19T07:47:29;22.50;;;18.47;;
35743;SDS011;21867;52.012;4.324;2022-12-19T07:49:56;20.30;;;16.60;;
35743;SDS011;21867;52.012;4.324;2022-12-19T07:52:23;22.10;;;18.03;;
35743;SDS011;21867;52.012;4.324;2022-12-19T07:54:51;23.50;;;18.43;;
35743;SDS011;21867;52.012;4.324;2022-12-19T07:57:18;20.03;;;17.10;;
35743;SDS011;21867;52.012;4.324;2022-12-19T08:02:39;16.87;;;13.97;;
35743;SDS011;21867;52.012;4.324;2022-12-19T08:05:06;21.97;;;17.07;;
35743;SDS011;21867;52.012;4.324;2022-12-19T08:07:34;23.23;;;17.30;;
35743;SDS011;21867;52.012;4.324;2022-12-19T08:16:16;21.77;;;18.50;;
35743;SDS011;21867;52.012;4.324;2022-12-19T08:18:45;28.87;;;18.70;;
35743;SDS011;21867;52.012;4.324;2022-12-19T08:21:13;17.90;;;15.93;;
35743;SDS011;21867;52.012;4.324;2022-12-19T08:23:40;20.50;;;14.67;;
35743;SDS011;21867;52.012;4.324;2022-12-19T08:26:09;19.87;;;17.37;;
35743;SDS011;21867;52.012;4.324;2022-12-19T08:31:23;15.97;;;14.23;;
35743;SDS011;21867;52.012;4.324;2022-12-19T08:33:52;20.20;;;17.23;;
35743;SDS011;21867;52.012;4.324;2022-12-19T08:36:21;23.73;;;17.27;;
35743;SDS011;21867;52.012;4.324;2022-12-19T08:45:51;21.93;;;15.60;;
35743;SDS011;21867;52.012;4.324;2022-12-19T08:48:19;18.67;;;14.87;;
35743;SDS011;21867;52.012;4.324;2022-12-19T08:50:51;20.77;;;16.53;;
35743;SDS011;21867;52.012;4.324;2022-12-19T08:53:20;18.80;;;16.70;;
35743;SDS011;21867;52.012;4.324;2022-12-19T08:55:52;18.33;;;15.70;;
35743;SDS011;21867;52.012;4.324;2022-12-19T09:01:10;23.53;;;14.53;;
35743;SDS011;21867;52.012;4.324;2022-12-19T09:03:37;13.83;;;11.83;;
35743;SDS011;21867;52.012;4.324;2022-12-19T09:06:26;21.77;;;17.17;;
35743;SDS011;21867;52.012;4.324;2022-12-19T09:15:10;18.23;;;15.50;;
35743;SDS011;21867;52.012;4.324;2022-12-19T09:17:38;16.33;;;14.60;;
35743;SDS011;21867;52.012;4.324;2022-12-19T09:20:06;13.23;;;11.33;;
35743;SDS011;21867;52.012;4.324;2022-12-19T09:22:35;20.53;;;15.37;;
35743;SDS011;21867;52.012;4.324;2022-12-19T09:25:02;17.60;;;13.90;;
35743;SDS011;21867;52.012;4.324;2022-12-19T09:30:33;17.53;;;14.50;;
35743;SDS011;21867;52.012;4.324;2022-12-19T09:33:00;17.10;;;14.93;;
35743;SDS011;21867;52.012;4.324;2022-12-19T09:35:28;19.97;;;16.07;;
35743;SDS011;21867;52.012;4.324;2022-12-19T09:38:07;19.87;;;14.33;;
35743;SDS011;21867;52.012;4.324;2022-12-19T09:43:47;18.20;;;16.30;;
35743;SDS011;21867;52.012;4.324;2022-12-19T09:46:19;16.93;;;14.17;;
35743;SDS011;21867;52.012;4.324;2022-12-19T09:48:52;19.23;;;16.37;;
35743;SDS011;21867;52.012;4.324;2022-12-19T09:51:24;23.40;;;17.00;;
35743;SDS011;21867;52.012;4.324;2022-12-19T09:53:58;19.17;;;15.53;;
35743;SDS011;21867;52.012;4.324;2022-12-19T09:56:29;21.43;;;17.83;;
35743;SDS011;21867;52.012;4.324;2022-12-19T09:59:13;11.43;;;8.10;;
35743;SDS011;21867;52.012;4.324;2022-12-19T10:01:47;19.60;;;15.70;;
35743;SDS011;21867;52.012;4.324;2022-12-19T10:04:18;17.70;;;15.83;;
35743;SDS011;21867;52.012;4.324;2022-12-19T10:06:46;21.07;;;15.97;;
35743;SDS011;21867;52.012;4.324;2022-12-19T10:13:15;17.27;;;15.47;;
35743;SDS011;21867;52.012;4.324;2022-12-19T10:15:46;19.30;;;16.97;;
35743;SDS011;21867;52.012;4.324;2022-12-19T10:18:28;18.23;;;16.37;;
35743;SDS011;21867;52.012;4.324;2022-12-19T10:21:01;16.73;;;13.97;;
35743;SDS011;21867;52.012;4.324;2022-12-19T10:23:43;17.43;;;14.63;;
35743;SDS011;21867;52.012;4.324;2022-12-19T10:26:12;18.20;;;14.20;;
35743;SDS011;21867;52.012;4.324;2022-12-19T10:28:48;14.27;;;12.30;;
35743;SDS011;21867;52.012;4.324;2022-12-19T10:31:22;15.97;;;13.80;;
35743;SDS011;21867;52.012;4.324;2022-12-19T10:33:54;18.13;;;13.17;;
35743;SDS011;21867;52.012;4.324;2022-12-19T10:36:23;19.00;;;13.03;;
35743;SDS011;21867;52.012;4.324;2022-12-19T10:42:14;18.83;;;15.30;;
35743;SDS011;21867;52.012;4.324;2022-12-19T10:44:46;16.20;;;14.50;;
35743;SDS011;21867;52.012;4.324;2022-12-19T10:47:15;15.83;;;13.10;;
35743;SDS011;21867;52.012;4.324;2022-12-19T10:49:42;16.70;;;13.63;;
35743;SDS011;21867;52.012;4.324;2022-12-19T10:52:11;17.93;;;16.20;;
35743;SDS011;21867;52.012;4.324;2022-12-19T10:54:39;19.23;;;14.67;;
35743;SDS011;21867;52.012;4.324;2022-12-19T10:57:18;16.73;;;15.00;;
35743;SDS011;21867;52.012;4.324;2022-12-19T10:59:54;22.50;;;19.67;;
35743;SDS011;21867;52.012;4.324;2022-12-19T11:02:25;24.13;;;20.70;;
35743;SDS011;21867;52.012;4.324;2022-12-19T11:04:55;15.80;;;12.93;;
35743;SDS011;21867;52.012;4.324;2022-12-19T11:07:23;20.10;;;15.80;;
35743;SDS011;21867;52.012;4.324;2022-12-19T11:09:51;24.70;;;17.50;;
35743;SDS011;21867;52.012;4.324;2022-12-19T11:12:39;18.93;;;16.17;;
35743;SDS011;21867;52.012;4.324;2022-12-19T11:16:21;20.33;;;17.13;;
35743;SDS011;21867;52.012;4.324;2022-12-19T11:19:18;21.07;;;18.83;;
35743;SDS011;21867;52.012;4.324;2022-12-19T11:22:06;20.63;;;18.57;;
35743;SDS011;21867;52.012;4.324;2022-12-19T11:24:54;21.67;;;19.33;;
35743;SDS011;21867;52.012;4.324;2022-12-19T11:27:42;18.60;;;16.70;;
35743;SDS011;21867;52.012;4.324;2022-12-19T11:30:29;24.70;;;19.63;;
35743;SDS011;21867;52.012;4.324;2022-12-19T11:33:45;25.87;;;19.50;;
35743;SDS011;21867;52.012;4.324;2022-12-19T11:36:24;28.43;;;21.80;;
35743;SDS011;21867;52.012;4.324;2022-12-19T11:38:53;32.37;;;23.40;;
35743;SDS011;21867;52.012;4.324;2022-12-19T11:48:17;31.73;;;24.83;;
35743;SDS011;21867;52.012;4.324;2022-12-19T11:50:52;33.93;;;26.93;;
35743;SDS011;21867;52.012;4.324;2022-12-19T11:53:22;35.33;;;27.30;;
35743;SDS011;21867;52.012;4.324;2022-12-19T11:55:51;40.97;;;30.37;;
35743;SDS011;21867;52.012;4.324;2022-12-19T11:58:21;37.87;;;29.20;;
35743;SDS011;21867;52.012;4.324;2022-12-19T12:00:54;31.90;;;25.33;;
35743;SDS011;21867;52.012;4.324;2022-12-19T12:03:39;40.47;;;27.60;;
35743;SDS011;21867;52.012;4.324;2022-12-19T12:06:29;37.23;;;26.00;;
35743;SDS011;21867;52.012;4.324;2022-12-19T12:09:00;37.63;;;25.40;;
35743;SDS011;21867;52.012;4.324;2022-12-19T12:11:51;36.00;;;25.80;;
35743;SDS011;21867;52.012;4.324;2022-12-19T12:14:43;31.23;;;22.33;;
35743;SDS011;21867;52.012;4.324;2022-12-19T12:21:21;44.00;;;26.13;;
35743;SDS011;21867;52.012;4.324;2022-12-19T12:24:12;39.53;;;29.30;;
35743;SDS011;21867;52.012;4.324;2022-12-19T12:27:04;31.03;;;27.70;;
35743;SDS011;21867;52.012;4.324;2022-12-19T12:29:53;35.97;;;25.67;;
35743;SDS011;21867;52.012;4.324;2022-12-19T12:32:50;31.80;;;25.17;;
35743;SDS011;21867;52.012;4.324;2022-12-19T12:35:43;32.13;;;24.90;;
35743;SDS011;21867;52.012;4.324;2022-12-19T12:38:36;24.37;;;21.73;;
35743;SDS011;21867;52.012;4.324;2022-12-19T12:41:13;26.37;;;21.70;;
35743;SDS011;21867;52.012;4.324;2022-12-19T12:43:48;21.47;;;17.37;;
35743;SDS011;21867;52.012;4.324;2022-12-19T12:46:23;24.27;;;19.83;;
35743;SDS011;21867;52.012;4.324;2022-12-19T12:48:52;20.67;;;14.80;;
35743;SDS011;21867;52.012;4.324;2022-12-19T12:51:22;21.03;;;16.13;;
35743;SDS011;21867;52.012;4.324;2022-12-19T12:53:58;24.13;;;17.83;;
35743;SDS011;21867;52.012;4.324;2022-12-19T13:00:31;17.10;;;14.40;;
35743;SDS011;21867;52.012;4.324;2022-12-19T13:03:01;18.57;;;13.63;;
35743;SDS011;21867;52.012;4.324;2022-12-19T13:05:34;14.13;;;12.80;;
35743;SDS011;21867;52.012;4.324;2022-12-19T13:10:51;13.67;;;12.23;;
35743;SDS011;21867;52.012;4.324;2022-12-19T13:13:19;15.50;;;12.33;;
35743;SDS011;21867;52.012;4.324;2022-12-19T13:19:03;11.10;;;10.00;;
35743;SDS011;21867;52.012;4.324;2022-12-19T13:21:42;11.20;;;10.03;;
35743;SDS011;21867;52.012;4.324;2022-12-19T13:24:36;11.67;;;10.50;;
35743;SDS011;21867;52.012;4.324;2022-12-19T13:34:10;13.57;;;9.00;;
35743;SDS011;21867;52.012;4.324;2022-12-19T13:36:45;7.13;;;6.43;;
35743;SDS011;21867;52.012;4.324;2022-12-19T13:39:33;8.63;;;7.83;;
35743;SDS011;21867;52.012;4.324;2022-12-19T13:42:23;11.13;;;10.13;;
35743;SDS011;21867;52.012;4.324;2022-12-19T13:47:28;10.50;;;8.63;;
35743;SDS011;21867;52.012;4.324;2022-12-19T13:50:00;9.50;;;8.53;;
35743;SDS011;21867;52.012;4.324;2022-12-19T13:52:29;9.37;;;8.47;;
35743;SDS011;21867;52.012;4.324;2022-12-19T13:54:57;10.90;;;9.40;;
35743;SDS011;21867;52.012;4.324;2022-12-19T13:57:26;8.97;;;8.07;;
35743;SDS011;21867;52.012;4.324;2022-12-19T14:06:43;11.87;;;7.77;;
35743;SDS011;21867;52.012;4.324;2022-12-19T14:09:18;13.63;;;6.87;;
35743;SDS011;21867;52.012;4.324;2022-12-19T14:12:13;8.10;;;7.30;;
35743;SDS011;21867;52.012;4.324;2022-12-19T14:15:19;11.70;;;7.63;;
35743;SDS011;21867;52.012;4.324;2022-12-19T14:17:46;6.97;;;6.23;;
35743;SDS011;21867;52.012;4.324;2022-12-19T14:20:19;9.17;;;7.50;;
35743;SDS011;21867;52.012;4.324;2022-12-19T14:23:08;7.73;;;6.93;;
35743;SDS011;21867;52.012;4.324;2022-12-19T14:25:36;6.93;;;6.23;;
35743;SDS011;21867;52.012;4.324;2022-12-19T14:28:26;8.93;;;8.13;;
35743;SDS011;21867;52.012;4.324;2022-12-19T14:30:59;9.93;;;7.00;;
35743;SDS011;21867;52.012;4.324;2022-12-19T14:33:30;9.50;;;7.60;;
35743;SDS011;21867;52.012;4.324;2022-12-19T14:36:21;8.90;;;8.00;;
35743;SDS011;21867;52.012;4.324;2022-12-19T14:38:53;8.70;;;7.57;;
35743;SDS011;21867;52.012;4.324;2022-12-19T14:41:42;9.57;;;8.40;;
35743;SDS011;21867;52.012;4.324;2022-12-19T14:44:10;9.47;;;8.13;;
35743;SDS011;21867;52.012;4.324;2022-12-19T14:46:58;11.93;;;8.03;;
35743;SDS011;21867;52.012;4.324;2022-12-19T14:49:50;10.40;;;6.87;;
35743;SDS011;21867;52.012;4.324;2022-12-19T14:52:39;9.40;;;8.10;;
35743;SDS011;21867;52.012;4.324;2022-12-19T14:55:29;7.37;;;6.43;;
35743;SDS011;21867;52.012;4.324;2022-12-19T14:58:18;7.93;;;6.90;;
35743;SDS011;21867;52.012;4.324;2022-12-19T15:01:26;11.93;;;6.87;;
35743;SDS011;21867;52.012;4.324;2022-12-19T15:04:37;8.27;;;5.90;;
35743;SDS011;21867;52.012;4.324;2022-12-19T15:07:20;8.33;;;6.20;;
35743;SDS011;21867;52.012;4.324;2022-12-19T15:09:52;8.07;;;6.33;;
35743;SDS011;21867;52.012;4.324;2022-12-19T15:12:48;8.93;;;6.77;;
35743;SDS011;21867;52.012;4.324;2022-12-19T15:15:38;8.40;;;6.53;;
35743;SDS011;21867;52.012;4.324;2022-12-19T15:18:15;6.43;;;5.47;;
35743;SDS011;21867;52.012;4.324;2022-12-19T15:21:04;7.40;;;4.97;;
35743;SDS011;21867;52.012;4.324;2022-12-19T15:23:31;7.30;;;6.20;;
35743;SDS011;21867;52.012;4.324;2022-12-19T15:25:59;10.10;;;4.97;;
35743;SDS011;21867;52.012;4.324;2022-12-19T15:28:47;8.73;;;6.77;;
35743;SDS011;21867;52.012;4.324;2022-12-19T15:34:20;7.37;;;6.63;;
35743;SDS011;21867;52.012;4.324;2022-12-19T15:37:02;9.30;;;6.20;;
35743;SDS011;21867;52.012;4.324;2022-12-19T15:39:29;7.27;;;6.30;;
35743;SDS011;21867;52.012;4.324;2022-12-19T15:41:59;9.33;;;6.57;;
35743;SDS011;21867;52.012;4.324;2022-12-19T15:44:30;7.37;;;5.60;;
35743;SDS011;21867;52.012;4.324;2022-12-19T15:46:58;5.80;;;5.03;;
35743;SDS011;21867;52.012;4.324;2022-12-19T15:49:31;7.93;;;7.10;;
35743;SDS011;21867;52.012;4.324;2022-12-19T15:51:58;7.57;;;5.33;;
35743;SDS011;21867;52.012;4.324;2022-12-19T15:54:25;7.90;;;7.10;;
35743;SDS011;21867;52.012;4.324;2022-12-19T15:57:17;5.23;;;4.20;;
35743;SDS011;21867;52.012;4.324;2022-12-19T16:00:09;7.10;;;6.40;;
35743;SDS011;21867;52.012;4.324;2022-12-19T16:02:57;7.17;;;6.17;;
35743;SDS011;21867;52.012;4.324;2022-12-19T16:05:44;6.37;;;5.60;;
35743;SDS011;21867;52.012;4.324;2022-12-19T16:08:12;9.70;;;6.67;;
35743;SDS011;21867;52.012;4.324;2022-12-19T16:10:39;6.73;;;6.03;;
35743;SDS011;21867;52.012;4.324;2022-12-19T16:13:08;6.43;;;5.87;;
35743;SDS011;21867;52.012;4.324;2022-12-19T16:15:42;9.43;;;5.00;;
35743;SDS011;21867;52.012;4.324;2022-12-19T16:18:09;7.17;;;6.47;;
35743;SDS011;21867;52.012;4.324;2022-12-19T16:20:38;7.63;;;6.23;;
35743;SDS011;21867;52.012;4.324;2022-12-19T16:23:08;11.93;;;6.37;;
35743;SDS011;21867;52.012;4.324;2022-12-19T16:25:37;7.47;;;6.00;;
35743;SDS011;21867;52.012;4.324;2022-12-19T16:28:05;7.33;;;6.33;;
35743;SDS011;21867;52.012;4.324;2022-12-19T16:30:33;9.70;;;6.03;;
35743;SDS011;21867;52.012;4.324;2022-12-19T16:33:02;6.83;;;6.13;;
35743;SDS011;21867;52.012;4.324;2022-12-19T16:35:31;10.40;;;5.80;;
35743;SDS011;21867;52.012;4.324;2022-12-19T16:38:19;9.83;;;6.27;;
35743;SDS011;21867;52.012;4.324;2022-12-19T16:40:46;6.07;;;5.57;;
35743;SDS011;21867;52.012;4.324;2022-12-19T16:43:15;7.57;;;6.80;;
35743;SDS011;21867;52.012;4.324;2022-12-19T16:45:43;6.30;;;5.57;;
35743;SDS011;21867;52.012;4.324;2022-12-19T16:48:17;6.07;;;5.57;;
35743;SDS011;21867;52.012;4.324;2022-12-19T16:50:44;11.33;;;7.20;;
35743;SDS011;21867;52.012;4.324;2022-12-19T16:53:12;7.40;;;6.60;;
35743;SDS011;21867;52.012;4.324;2022-12-19T16:55:39;9.43;;;6.03;;
35743;SDS011;21867;52.012;4.324;2022-12-19T16:58:07;5.93;;;5.40;;
35743;SDS011;21867;52.012;4.324;2022-12-19T17:00:39;10.53;;;6.07;;
35743;SDS011;21867;52.012;4.324;2022-12-19T17:03:08;6.43;;;5.60;;
35743;SDS011;21867;52.012;4.324;2022-12-19T17:05:41;8.97;;;5.77;;
35743;SDS011;21867;52.012;4.324;2022-12-19T17:08:09;9.67;;;5.23;;
35743;SDS011;21867;52.012;4.324;2022-12-19T17:10:37;7.50;;;6.23;;